Time;durP1;ratioP1;P1;durP2;ratioP2;P2;SDS_P1;SDS_P2;PMS_P1;PMS_P2;Temp;Humidity;BMP_temperature;BMP_pressure;BME280_temperature;BME280_humidity;BME280_pressure;Samples;Min_cycle;Max_cycle;Signal;HPM_P1;HPM_P2
2021/10/15 00:01:31;;;;;;;0.83;0.50;;;;;;;;;;5135212;27;20202;-92
2021/10/15 00:03:59;;;;;;;0.30;0.30;;;;;;;;;;5135450;27;20237;-92
2021/10/15 00:06:27;;;;;;;0.67;0.67;;;;;;;;;;5135048;27;20226;-93
2021/10/15 00:08:55;;;;;;;0.43;0.43;;;;;;;;;;5135345;27;20195;-92
2021/10/15 00:11:22;;;;;;;0.50;0.50;;;;;;;;;;5135261;27;20199;-92
2021/10/15 00:13:49;;;;;;;1.60;0.70;;;;;;;;;;5135120;27;20215;-91
2021/10/15 00:16:16;;;;;;;0.37;0.37;;;;;;;;;;5135254;27;20194;-92
2021/10/15 00:18:43;;;;;;;0.67;0.60;;;;;;;;;;5135216;27;20267;-92
2021/10/15 00:21:11;;;;;;;0.80;0.80;;;;;;;;;;5134917;27;20233;-91
2021/10/15 00:23:39;;;;;;;1.33;0.70;;;;;;;;;;5134805;27;20194;-92
2021/10/15 00:26:07;;;;;;;1.90;0.90;;;;;;;;;;5134862;27;20183;-91
2021/10/15 00:28:37;;;;;;;0.43;0.43;;;;;;;;;;5134837;27;20198;-94
2021/10/15 00:31:04;;;;;;;0.30;0.30;;;;;;;;;;5134709;27;20198;-93
2021/10/15 00:33:32;;;;;;;0.67;0.67;;;;;;;;;;5134573;27;20214;-92
2021/10/15 00:35:59;;;;;;;0.37;0.37;;;;;;;;;;5134621;27;20576;-92
2021/10/15 00:38:26;;;;;;;0.20;0.10;;;;;;;;;;5134662;27;20194;-91
2021/10/15 00:40:55;;;;;;;0.37;0.37;;;;;;;;;;5134870;27;20194;-92
2021/10/15 00:43:24;;;;;;;0.50;0.50;;;;;;;;;;5134660;27;20281;-91
2021/10/15 00:45:51;;;;;;;1.27;0.70;;;;;;;;;;5134771;27;20247;-92
2021/10/15 00:48:18;;;;;;;0.20;0.20;;;;;;;;;;5134632;27;20219;-93
2021/10/15 00:50:46;;;;;;;0.40;0.37;;;;;;;;;;5134299;27;20202;-89
2021/10/15 00:53:14;;;;;;;0.30;0.30;;;;;;;;;;5134216;27;20296;-91
2021/10/15 00:55:41;;;;;;;0.93;0.80;;;;;;;;;;5134407;27;20578;-92
2021/10/15 00:58:10;;;;;;;0.20;0.20;;;;;;;;;;5134142;27;20193;-93
2021/10/15 01:00:37;;;;;;;0.33;0.27;;;;;;;;;;5134258;27;20229;-93
2021/10/15 01:03:05;;;;;;;0.20;0.20;;;;;;;;;;5134192;27;20663;-92
2021/10/15 01:05:32;;;;;;;0.23;0.23;;;;;;;;;;5134020;27;20202;-92
2021/10/15 01:08:00;;;;;;;0.30;0.30;;;;;;;;;;5133734;27;20190;-91
2021/10/15 01:10:27;;;;;;;1.00;1.00;;;;;;;;;;5134275;27;20677;-91
2021/10/15 01:12:56;;;;;;;1.30;1.20;;;;;;;;;;5134059;27;20219;-92
2021/10/15 01:15:24;;;;;;;0.97;0.60;;;;;;;;;;5134101;27;20199;-91
2021/10/15 01:17:52;;;;;;;2.67;0.30;;;;;;;;;;5133787;27;20195;-92
2021/10/15 01:20:20;;;;;;;0.37;0.37;;;;;;;;;;5134192;27;20195;-90
2021/10/15 01:22:48;;;;;;;0.80;0.50;;;;;;;;;;5133933;27;20195;-91
2021/10/15 01:25:15;;;;;;;0.90;0.90;;;;;;;;;;5135432;27;20946;-94
2021/10/15 01:27:43;;;;;;;0.60;0.60;;;;;;;;;;5139528;27;20207;-96
2021/10/15 01:30:11;;;;;;;0.90;0.90;;;;;;;;;;5135173;27;20217;-95
2021/10/15 01:32:39;;;;;;;0.57;0.57;;;;;;;;;;5119946;28;20615;-95
2021/10/15 01:35:07;;;;;;;0.33;0.33;;;;;;;;;;5119879;28;20205;-95
2021/10/15 01:37:36;;;;;;;0.23;0.23;;;;;;;;;;5113880;28;20256;-93
2021/10/15 01:40:04;;;;;;;0.27;0.20;;;;;;;;;;5114357;28;20376;-94
2021/10/15 01:45:16;;;;;;;2.17;2.07;;;;;;;;;;5113485;28;20183;-92
2021/10/15 01:47:43;;;;;;;1.80;1.70;;;;;;;;;;5113313;28;20203;-93
2021/10/15 01:50:11;;;;;;;1.40;1.30;;;;;;;;;;5113437;28;20191;-93
2021/10/15 01:52:41;;;;;;;1.77;1.67;;;;;;;;;;5113678;28;20187;-92
2021/10/15 01:55:10;;;;;;;0.80;0.80;;;;;;;;;;5113343;28;20275;-92
2021/10/15 01:57:37;;;;;;;1.53;1.13;;;;;;;;;;5113114;28;20192;-91
2021/10/15 02:00:05;;;;;;;5.30;4.77;;;;;;;;;;5113087;28;20226;-93
2021/10/15 02:02:32;;;;;;;3.50;3.20;;;;;;;;;;5113061;28;20676;-92
2021/10/15 02:05:00;;;;;;;3.63;3.33;;;;;;;;;;5112844;28;20235;-93
2021/10/15 02:07:27;;;;;;;1.03;1.03;;;;;;;;;;5113016;28;20191;-92
2021/10/15 02:09:56;;;;;;;14.73;11.97;;;;;;;;;;5112871;28;20227;-92
2021/10/15 02:12:23;;;;;;;1.03;0.93;;;;;;;;;;5113067;28;20195;-90
2021/10/15 02:14:50;;;;;;;1.90;1.37;;;;;;;;;;5113461;28;20211;-92
2021/10/15 02:17:18;;;;;;;0.90;0.90;;;;;;;;;;5113077;28;20191;-92
2021/10/15 02:19:45;;;;;;;0.30;0.30;;;;;;;;;;5115576;28;20231;-91
2021/10/15 02:22:12;;;;;;;1.00;0.93;;;;;;;;;;5116711;28;20188;-95
2021/10/15 02:24:39;;;;;;;0.63;0.63;;;;;;;;;;5116883;28;20191;-94
2021/10/15 02:27:08;;;;;;;0.20;0.20;;;;;;;;;;5134177;27;20198;-92
2021/10/15 02:29:35;;;;;;;0.20;0.20;;;;;;;;;;5137134;27;20196;-93
2021/10/15 02:32:03;;;;;;;0.60;0.60;;;;;;;;;;5136819;27;20230;-93
2021/10/15 02:34:30;;;;;;;3.47;3.17;;;;;;;;;;5136906;27;20229;-94
2021/10/15 02:36:57;;;;;;;2.03;1.83;;;;;;;;;;5138771;27;20719;-94
2021/10/15 02:39:25;;;;;;;0.23;0.23;;;;;;;;;;5137174;27;20630;-96
2021/10/15 02:41:52;;;;;;;6.47;5.87;;;;;;;;;;5119003;27;20195;-94
2021/10/15 02:44:21;;;;;;;1.63;1.53;;;;;;;;;;5138116;27;20225;-94
2021/10/15 02:46:48;;;;;;;0.30;0.30;;;;;;;;;;5137386;27;20666;-93
2021/10/15 02:52:24;;;;;;;0.10;0.10;;;;;;;;;;5055256;27;20237;-91
2021/10/15 02:54:52;;;;;;;0.13;0.13;;;;;;;;;;5136637;27;20222;-94
2021/10/15 02:57:19;;;;;;;0.27;0.27;;;;;;;;;;5136639;27;20198;-93
2021/10/15 02:59:48;;;;;;;19.97;18.00;;;;;;;;;;5136740;27;20195;-92
2021/10/15 03:02:15;;;;;;;2.93;2.70;;;;;;;;;;5137430;27;20197;-94
2021/10/15 03:04:43;;;;;;;0.40;0.40;;;;;;;;;;5137233;27;20543;-92
2021/10/15 03:07:10;;;;;;;4.83;3.27;;;;;;;;;;5136380;27;20199;-94
2021/10/15 03:09:37;;;;;;;1.40;1.30;;;;;;;;;;5136623;27;20206;-93
2021/10/15 03:12:06;;;;;;;0.57;0.57;;;;;;;;;;5136431;27;20194;-93
2021/10/15 03:14:33;;;;;;;1.00;0.97;;;;;;;;;;5136312;27;20219;-93
2021/10/15 03:17:02;;;;;;;3.70;3.40;;;;;;;;;;5137708;27;20203;-94
2021/10/15 03:19:30;;;;;;;0.50;0.50;;;;;;;;;;5140181;27;20203;-95
2021/10/15 03:21:57;;;;;;;0.40;0.40;;;;;;;;;;5139648;27;20743;-95
2021/10/15 03:24:25;;;;;;;0.50;0.50;;;;;;;;;;5139757;27;20199;-95
2021/10/15 03:26:52;;;;;;;0.67;0.67;;;;;;;;;;5138010;27;20222;-95
2021/10/15 03:29:19;;;;;;;0.43;0.43;;;;;;;;;;5137200;27;20187;-95
2021/10/15 03:31:47;;;;;;;1.00;0.90;;;;;;;;;;5137505;27;20228;-95
2021/10/15 03:34:16;;;;;;;10.37;9.47;;;;;;;;;;5136211;27;20222;-95
2021/10/15 03:36:43;;;;;;;1.70;1.60;;;;;;;;;;5138148;27;20191;-96
2021/10/15 03:39:11;;;;;;;0.97;0.97;;;;;;;;;;5137796;27;20201;-95
2021/10/15 03:41:39;;;;;;;0.70;0.70;;;;;;;;;;5139739;27;20639;-96
2021/10/15 03:44:07;;;;;;;0.60;0.60;;;;;;;;;;5141712;27;20278;-96
2021/10/15 03:46:34;;;;;;;0.57;0.57;;;;;;;;;;5138420;27;20199;-95
2021/10/15 03:49:02;;;;;;;1.13;1.13;;;;;;;;;;5136460;27;20195;-95
2021/10/15 03:51:31;;;;;;;0.70;0.70;;;;;;;;;;5138103;27;20706;-96
2021/10/15 03:53:58;;;;;;;2.00;1.90;;;;;;;;;;5139008;27;20245;-95
2021/10/15 03:56:29;;;;;;;13.20;11.70;;;;;;;;;;5138899;27;20278;-96
2021/10/15 03:58:56;;;;;;;2.40;2.20;;;;;;;;;;5137428;27;20194;-96
2021/10/15 04:01:23;;;;;;;0.60;0.60;;;;;;;;;;5137951;27;20667;-95
2021/10/15 04:03:51;;;;;;;1.43;1.33;;;;;;;;;;5137620;27;20199;-95
2021/10/15 04:06:18;;;;;;;3.17;2.60;;;;;;;;;;5116229;28;20211;-94
2021/10/15 04:08:47;;;;;;;1.93;1.83;;;;;;;;;;5117842;28;20194;-96
2021/10/15 04:11:16;;;;;;;0.63;0.63;;;;;;;;;;5116978;28;20278;-95
2021/10/15 04:13:43;;;;;;;2.27;2.00;;;;;;;;;;5116365;28;20220;-96
2021/10/15 04:16:10;;;;;;;2.50;2.30;;;;;;;;;;5116738;28;20718;-94
2021/10/15 04:18:38;;;;;;;1.50;1.40;;;;;;;;;;5120247;28;20222;-95
2021/10/15 04:21:05;;;;;;;10.03;9.07;;;;;;;;;;5119103;28;20203;-94
2021/10/15 04:23:33;;;;;;;13.00;10.03;;;;;;;;;;5114721;28;20255;-94
2021/10/15 04:26:01;;;;;;;19.10;17.07;;;;;;;;;;5114930;28;20265;-94
2021/10/15 04:28:29;;;;;;;4.97;4.50;;;;;;;;;;5114562;28;20199;-94
2021/10/15 04:30:56;;;;;;;36.07;32.60;;;;;;;;;;5115637;28;20199;-95
2021/10/15 04:33:24;;;;;;;11.90;10.90;;;;;;;;;;5114129;28;20292;-95
2021/10/15 04:35:52;;;;;;;4.87;4.47;;;;;;;;;;5114506;28;20195;-94
2021/10/15 04:38:19;;;;;;;2.00;1.90;;;;;;;;;;5114554;28;20199;-95
2021/10/15 04:40:47;;;;;;;0.80;0.80;;;;;;;;;;5114643;28;20252;-95
2021/10/15 04:43:16;;;;;;;0.47;0.47;;;;;;;;;;5114265;28;20234;-95
2021/10/15 04:45:43;;;;;;;1.10;1.10;;;;;;;;;;5116866;28;20269;-96
2021/10/15 04:48:11;;;;;;;1.10;1.10;;;;;;;;;;5115998;28;20199;-94
2021/10/15 04:50:38;;;;;;;0.60;0.60;;;;;;;;;;5118928;28;20222;-95
2021/10/15 04:53:06;;;;;;;2.30;2.10;;;;;;;;;;5118245;28;20195;-95
2021/10/15 04:55:43;;;;;;;1.70;1.60;;;;;;;;;;5121864;28;20226;-96
2021/10/15 04:58:11;;;;;;;1.40;1.23;;;;;;;;;;5125397;28;20213;-96
2021/10/15 05:00:40;;;;;;;1.67;0.80;;;;;;;;;;5125879;28;20227;-95
2021/10/15 05:03:08;;;;;;;1.90;1.80;;;;;;;;;;5121539;28;20228;-95
2021/10/15 05:05:35;;;;;;;2.23;2.03;;;;;;;;;;5121509;28;20188;-96
2021/10/15 05:08:04;;;;;;;3.37;2.60;;;;;;;;;;5122790;28;20470;-96
2021/10/15 05:10:35;;;;;;;3.90;2.70;;;;;;;;;;5126228;28;20631;-95
2021/10/15 05:13:06;;;;;;;4.70;3.70;;;;;;;;;;5126018;28;20202;-96
2021/10/15 05:15:34;;;;;;;29.60;21.80;;;;;;;;;;5124267;28;20713;-96
2021/10/15 05:18:03;;;;;;;6.27;4.40;;;;;;;;;;5120013;28;20199;-96
2021/10/15 05:20:30;;;;;;;3.67;3.37;;;;;;;;;;5115306;28;20196;-95
2021/10/15 05:22:58;;;;;;;2.13;1.30;;;;;;;;;;5114526;28;20226;-94
2021/10/15 05:25:25;;;;;;;2.73;2.53;;;;;;;;;;5113733;28;20215;-94
2021/10/15 05:27:53;;;;;;;8.13;7.47;;;;;;;;;;5113666;28;20218;-95
2021/10/15 05:30:20;;;;;;;4.30;3.53;;;;;;;;;;5113564;28;20194;-96
2021/10/15 05:32:50;;;;;;;1.70;1.60;;;;;;;;;;5115866;28;20635;-94
2021/10/15 05:35:22;;;;;;;1.87;1.70;;;;;;;;;;5118831;28;20578;-95
2021/10/15 05:37:50;;;;;;;1.20;1.20;;;;;;;;;;5119620;27;20207;-96
2021/10/15 05:40:17;;;;;;;1.40;1.30;;;;;;;;;;5118747;28;20207;-95
2021/10/15 05:42:45;;;;;;;1.83;1.70;;;;;;;;;;5120438;28;20195;-96
2021/10/15 05:45:14;;;;;;;1.57;1.30;;;;;;;;;;5120494;28;20191;-96
2021/10/15 05:47:41;;;;;;;13.23;9.83;;;;;;;;;;5127325;27;20199;-96
2021/10/15 05:50:11;;;;;;;5.43;4.13;;;;;;;;;;5128837;28;20256;-96
2021/10/15 05:52:46;;;;;;;5.20;4.63;;;;;;;;;;5130084;28;20229;-96
2021/10/15 05:55:31;;;;;;;2.67;2.47;;;;;;;;;;5133708;28;20219;-96
2021/10/15 06:00:51;;;;;;;2.37;2.17;;;;;;;;;;5137390;28;20184;-96
2021/10/15 06:03:25;;;;;;;1.80;1.70;;;;;;;;;;5135645;28;20229;-96
2021/10/15 06:14:29;;;;;;;4.43;3.97;;;;;;;;;;5033815;28;20223;-96
2021/10/15 06:17:06;;;;;;;4.63;3.50;;;;;;;;;;5126590;28;20192;-96
2021/10/15 06:19:52;;;;;;;4.43;4.03;;;;;;;;;;5141467;28;20199;-96
2021/10/15 06:22:32;;;;;;;4.93;3.33;;;;;;;;;;5141099;28;20199;-96
2021/10/15 06:25:08;;;;;;;7.37;6.77;;;;;;;;;;5138934;28;20201;-96
2021/10/15 06:27:40;;;;;;;7.03;6.33;;;;;;;;;;5138634;28;20202;-96
2021/10/15 06:30:11;;;;;;;4.13;3.67;;;;;;;;;;5155670;27;20194;-96
2021/10/15 06:32:49;;;;;;;3.60;2.90;;;;;;;;;;5139381;28;20235;-96
2021/10/15 06:35:19;;;;;;;4.30;3.97;;;;;;;;;;5135806;28;20219;-96
2021/10/15 06:37:47;;;;;;;3.03;2.73;;;;;;;;;;5137488;28;20206;-96
2021/10/15 06:40:22;;;;;;;3.30;3.10;;;;;;;;;;5138984;28;20206;-96
2021/10/15 06:42:50;;;;;;;4.47;3.87;;;;;;;;;;5134819;28;20611;-96
2021/10/15 06:45:28;;;;;;;3.50;3.20;;;;;;;;;;5118949;28;20195;-96
2021/10/15 06:47:59;;;;;;;4.03;3.50;;;;;;;;;;5130447;28;20223;-96
2021/10/15 06:50:32;;;;;;;3.43;3.23;;;;;;;;;;5131777;28;20206;-96
2021/10/15 06:53:00;;;;;;;3.63;3.33;;;;;;;;;;5135990;28;20195;-96
2021/10/15 06:55:34;;;;;;;4.17;3.87;;;;;;;;;;5137520;28;20227;-96
2021/10/15 06:58:07;;;;;;;4.77;4.30;;;;;;;;;;5151929;27;20175;-96
2021/10/15 07:00:35;;;;;;;3.83;3.53;;;;;;;;;;5129734;28;20195;-96
2021/10/15 07:03:03;;;;;;;4.57;4.17;;;;;;;;;;5131840;28;20200;-96
2021/10/15 07:05:35;;;;;;;5.33;4.83;;;;;;;;;;5134269;28;20221;-96
2021/10/15 07:08:05;;;;;;;5.07;4.57;;;;;;;;;;5131315;28;20191;-96
2021/10/15 07:10:35;;;;;;;7.60;6.87;;;;;;;;;;5128186;28;20191;-96
2021/10/15 07:13:09;;;;;;;5.20;4.80;;;;;;;;;;5135621;28;20253;-96
2021/10/15 07:15:37;;;;;;;5.30;4.80;;;;;;;;;;5113288;28;20219;-96
2021/10/15 07:18:07;;;;;;;4.40;4.07;;;;;;;;;;5131399;28;20203;-96
2021/10/15 07:20:35;;;;;;;5.90;4.67;;;;;;;;;;5119903;28;20179;-96
2021/10/15 07:23:08;;;;;;;5.20;3.90;;;;;;;;;;5132053;28;20197;-96
2021/10/15 07:25:47;;;;;;;4.63;3.90;;;;;;;;;;5132843;28;20660;-96
2021/10/15 07:28:17;;;;;;;5.93;4.73;;;;;;;;;;5129496;28;20199;-95
2021/10/15 07:30:46;;;;;;;6.07;5.13;;;;;;;;;;5129519;28;20195;-96
2021/10/15 07:33:14;;;;;;;4.03;3.73;;;;;;;;;;5131903;28;20288;-96
2021/10/15 07:35:42;;;;;;;4.00;3.60;;;;;;;;;;5128547;28;20222;-96
2021/10/15 07:38:13;;;;;;;5.43;4.90;;;;;;;;;;5127622;28;20183;-96
2021/10/15 07:40:41;;;;;;;5.33;4.60;;;;;;;;;;5132305;28;20183;-96
2021/10/15 07:43:11;;;;;;;7.07;6.03;;;;;;;;;;5128535;28;20203;-96
2021/10/15 07:45:38;;;;;;;5.37;4.13;;;;;;;;;;5125773;28;20211;-96
2021/10/15 07:48:06;;;;;;;4.67;4.27;;;;;;;;;;5125795;28;20268;-96
2021/10/15 07:50:35;;;;;;;5.37;4.97;;;;;;;;;;5125056;28;20260;-96
2021/10/15 07:53:02;;;;;;;5.13;4.63;;;;;;;;;;5126887;28;20195;-96
2021/10/15 07:55:30;;;;;;;5.13;4.73;;;;;;;;;;5128941;28;20219;-96
2021/10/15 07:57:58;;;;;;;3.33;3.10;;;;;;;;;;5125359;28;20204;-96
2021/10/15 08:00:27;;;;;;;3.50;3.20;;;;;;;;;;5121020;28;20253;-95
2021/10/15 08:02:55;;;;;;;4.10;3.23;;;;;;;;;;5118655;28;20202;-96
2021/10/15 08:05:23;;;;;;;3.10;2.70;;;;;;;;;;5116701;28;20191;-95
2021/10/15 08:07:50;;;;;;;15.07;6.90;;;;;;;;;;5119129;28;20214;-96
2021/10/15 08:10:19;;;;;;;6.80;5.47;;;;;;;;;;5127039;28;20218;-96
2021/10/15 08:12:46;;;;;;;3.13;2.90;;;;;;;;;;5120446;28;20191;-96
2021/10/15 08:15:16;;;;;;;3.60;3.30;;;;;;;;;;5116591;28;20215;-96
2021/10/15 08:17:45;;;;;;;3.00;2.70;;;;;;;;;;5119114;28;20223;-96
2021/10/15 08:20:13;;;;;;;3.47;2.70;;;;;;;;;;5118729;28;20203;-96
2021/10/15 08:22:41;;;;;;;2.50;2.23;;;;;;;;;;5116032;28;20192;-95
2021/10/15 08:25:10;;;;;;;3.90;2.33;;;;;;;;;;5120380;28;20219;-96
2021/10/15 08:27:37;;;;;;;3.30;3.10;;;;;;;;;;5119953;28;20199;-96
2021/10/15 08:30:06;;;;;;;4.27;3.90;;;;;;;;;;5117629;28;20219;-96
2021/10/15 08:32:33;;;;;;;5.37;4.87;;;;;;;;;;5115639;28;20227;-96
2021/10/15 08:35:02;;;;;;;5.80;5.30;;;;;;;;;;5114354;28;20227;-96
2021/10/15 08:37:30;;;;;;;6.97;6.37;;;;;;;;;;5114308;28;20198;-96
2021/10/15 08:40:01;;;;;;;8.37;7.67;;;;;;;;;;5114468;28;20277;-96
2021/10/15 08:42:28;;;;;;;7.07;6.47;;;;;;;;;;5114805;28;20260;-96
2021/10/15 08:45:02;;;;;;;4.87;4.43;;;;;;;;;;5115562;28;20199;-95
2021/10/15 08:47:29;;;;;;;6.20;5.70;;;;;;;;;;5114304;28;20207;-96
2021/10/15 08:49:57;;;;;;;5.43;4.93;;;;;;;;;;5115260;28;20271;-96
2021/10/15 08:52:25;;;;;;;6.37;4.60;;;;;;;;;;5114543;28;20199;-96
2021/10/15 08:54:56;;;;;;;5.80;3.93;;;;;;;;;;5114317;28;20246;-96
2021/10/15 08:57:23;;;;;;;3.03;2.83;;;;;;;;;;5114322;28;20598;-96
2021/10/15 08:59:52;;;;;;;5.33;4.60;;;;;;;;;;5114715;28;20264;-95
2021/10/15 09:02:25;;;;;;;3.20;2.90;;;;;;;;;;5113939;28;20199;-95
2021/10/15 09:04:55;;;;;;;4.23;3.93;;;;;;;;;;5113933;28;20252;-96
2021/10/15 09:07:25;;;;;;;3.53;3.23;;;;;;;;;;5113748;28;20203;-96
2021/10/15 09:10:21;;;;;;;3.10;2.90;;;;;;;;;;5113771;28;20214;-96
2021/10/15 09:12:56;;;;;;;4.43;4.00;;;;;;;;;;5113815;28;20256;-96
2021/10/15 09:15:32;;;;;;;4.53;4.13;;;;;;;;;;5113899;28;20219;-96
2021/10/15 09:18:10;;;;;;;3.50;3.27;;;;;;;;;;5114023;28;20716;-96
2021/10/15 09:20:38;;;;;;;3.53;3.20;;;;;;;;;;5115175;28;20199;-96
2021/10/15 09:23:05;;;;;;;3.20;2.90;;;;;;;;;;5117208;28;20584;-96
2021/10/15 09:25:37;;;;;;;3.50;3.20;;;;;;;;;;5119961;28;20191;-96
2021/10/15 09:28:17;;;;;;;2.97;2.63;;;;;;;;;;5133818;28;20211;-96
2021/10/15 09:30:47;;;;;;;3.57;3.27;;;;;;;;;;5132637;28;20195;-96
2021/10/15 09:33:15;;;;;;;3.80;3.50;;;;;;;;;;5123951;28;20222;-96
2021/10/15 09:35:46;;;;;;;4.40;4.00;;;;;;;;;;5116262;28;20215;-96
2021/10/15 09:38:16;;;;;;;4.70;4.30;;;;;;;;;;5117029;28;20290;-94
2021/10/15 09:40:48;;;;;;;4.60;4.20;;;;;;;;;;5120468;28;20210;-95
2021/10/15 09:43:18;;;;;;;4.10;3.70;;;;;;;;;;5116030;28;20267;-94
2021/10/15 09:45:47;;;;;;;4.03;3.73;;;;;;;;;;5118129;28;20199;-96
2021/10/15 09:48:21;;;;;;;3.67;3.13;;;;;;;;;;5114190;28;20191;-95
2021/10/15 09:51:15;;;;;;;3.97;3.23;;;;;;;;;;5120780;28;20282;-96
2021/10/15 09:53:44;;;;;;;4.30;3.90;;;;;;;;;;5119178;28;20193;-95
2021/10/15 09:56:43;;;;;;;5.87;5.37;;;;;;;;;;5118260;28;20219;-96
2021/10/15 09:59:14;;;;;;;6.37;4.67;;;;;;;;;;5115967;28;20192;-96
2021/10/15 10:01:43;;;;;;;4.10;3.80;;;;;;;;;;5124123;28;20754;-96
2021/10/15 10:04:15;;;;;;;3.70;3.40;;;;;;;;;;5121351;28;20211;-96
2021/10/15 10:06:57;;;;;;;4.17;3.87;;;;;;;;;;5123121;28;20226;-96
2021/10/15 10:09:35;;;;;;;4.27;3.47;;;;;;;;;;5127707;28;20183;-96
2021/10/15 10:12:07;;;;;;;5.60;5.07;;;;;;;;;;5131698;28;20255;-96
2021/10/15 10:14:37;;;;;;;5.43;5.03;;;;;;;;;;5134794;28;20167;-96
2021/10/15 10:17:06;;;;;;;5.83;5.30;;;;;;;;;;5113101;28;20280;-96
2021/10/15 10:19:53;;;;;;;7.73;7.00;;;;;;;;;;5128426;28;20192;-96
2021/10/15 10:22:27;;;;;;;12.27;10.43;;;;;;;;;;5124646;28;20196;-96
2021/10/15 10:24:56;;;;;;;7.53;6.77;;;;;;;;;;5131666;28;20200;-96
2021/10/15 10:30:20;;;;;;;5.07;4.57;;;;;;;;;;5064630;23;20236;-96
2021/10/15 10:33:04;;;;;;;6.43;5.17;;;;;;;;;;5008897;28;20208;-96
2021/10/15 10:35:40;;;;;;;6.00;5.50;;;;;;;;;;5009168;28;20224;-96
2021/10/15 10:41:27;;;;;;;5.27;4.60;;;;;;;;;;5114903;23;20275;-96
2021/10/15 10:44:16;;;;;;;8.27;4.37;;;;;;;;;;5020968;28;20199;-96
2021/10/15 10:52:14;;;;;;;6.23;5.63;;;;;;;;;;4952894;28;20214;-96
2021/10/15 10:54:44;;;;;;;5.77;5.20;;;;;;;;;;4957735;29;20187;-96
2021/10/15 10:57:31;;;;;;;6.10;5.53;;;;;;;;;;4956333;28;20226;-96
2021/10/15 11:00:24;;;;;;;5.60;4.97;;;;;;;;;;4950173;29;20261;-96
2021/10/15 11:03:15;;;;;;;6.07;5.47;;;;;;;;;;4950386;29;20198;-96
2021/10/15 11:05:44;;;;;;;7.57;6.87;;;;;;;;;;4949868;29;20183;-96
2021/10/15 11:08:31;;;;;;;7.00;6.27;;;;;;;;;;4951360;29;20231;-96
2021/10/15 11:11:46;;;;;;;6.10;5.50;;;;;;;;;;4949290;29;20274;-96
2021/10/15 11:14:54;;;;;;;5.90;5.40;;;;;;;;;;4905184;29;20235;-96
2021/10/15 11:17:27;;;;;;;5.57;5.07;;;;;;;;;;4950744;29;20242;-96
2021/10/15 11:20:18;;;;;;;7.30;5.60;;;;;;;;;;4947011;29;20205;-96
2021/10/15 11:23:00;;;;;;;6.47;5.93;;;;;;;;;;4950292;29;20210;-96
2021/10/15 11:25:30;;;;;;;7.00;4.87;;;;;;;;;;4946846;29;20207;-96
2021/10/15 11:27:59;;;;;;;7.10;6.03;;;;;;;;;;4946151;29;20613;-96
2021/10/15 11:30:28;;;;;;;6.70;6.07;;;;;;;;;;4945592;29;20207;-96
2021/10/15 11:33:03;;;;;;;9.03;8.13;;;;;;;;;;4939410;29;20210;-96
2021/10/15 11:35:33;;;;;;;6.33;5.83;;;;;;;;;;4941911;29;20736;-95
2021/10/15 11:38:04;;;;;;;6.97;6.47;;;;;;;;;;4938286;29;20210;-96
2021/10/15 11:40:38;;;;;;;7.23;6.53;;;;;;;;;;4938423;29;20210;-96
2021/10/15 11:43:15;;;;;;;7.57;6.87;;;;;;;;;;4940790;29;20205;-95
2021/10/15 11:45:45;;;;;;;9.03;8.03;;;;;;;;;;4940530;29;20198;-94
2021/10/15 11:48:13;;;;;;;7.83;7.07;;;;;;;;;;4938701;29;20273;-93
2021/10/15 11:50:47;;;;;;;8.03;7.23;;;;;;;;;;4938254;29;20238;-94
2021/10/15 11:53:16;;;;;;;9.13;8.23;;;;;;;;;;4938670;29;20274;-94
2021/10/15 11:55:44;;;;;;;7.73;7.03;;;;;;;;;;4937575;29;20257;-95
2021/10/15 11:58:29;;;;;;;7.13;6.53;;;;;;;;;;4940720;29;20206;-95
2021/10/15 12:01:03;;;;;;;12.80;9.67;;;;;;;;;;4939966;29;20194;-95
2021/10/15 12:03:33;;;;;;;11.30;8.73;;;;;;;;;;4938051;29;20211;-95
2021/10/15 12:06:28;;;;;;;8.63;6.87;;;;;;;;;;4937311;29;20219;-96
2021/10/15 12:09:00;;;;;;;5.33;4.87;;;;;;;;;;4937632;29;20293;-96
2021/10/15 12:11:44;;;;;;;4.00;3.70;;;;;;;;;;4938216;29;20207;-94
2021/10/15 12:14:15;;;;;;;6.53;5.93;;;;;;;;;;4937694;29;20202;-95
2021/10/15 12:16:49;;;;;;;5.40;4.90;;;;;;;;;;4937104;29;20238;-94
2021/10/15 12:19:28;;;;;;;8.83;7.93;;;;;;;;;;4937770;29;20238;-96
2021/10/15 12:22:10;;;;;;;5.87;5.37;;;;;;;;;;4940277;29;20234;-94
2021/10/15 12:24:39;;;;;;;5.67;5.20;;;;;;;;;;4936990;29;20232;-96
2021/10/15 12:27:14;;;;;;;5.27;4.87;;;;;;;;;;4936795;29;20242;-95
2021/10/15 12:29:43;;;;;;;6.00;5.47;;;;;;;;;;4937434;29;20293;-95
2021/10/15 12:32:17;;;;;;;7.07;6.37;;;;;;;;;;4936773;29;20273;-95
2021/10/15 12:35:02;;;;;;;7.47;6.77;;;;;;;;;;4936700;29;20710;-94
2021/10/15 12:37:43;;;;;;;5.70;5.20;;;;;;;;;;4936853;29;20227;-94
2021/10/15 12:40:43;;;;;;;4.33;3.97;;;;;;;;;;4938445;29;20208;-95
2021/10/15 12:43:15;;;;;;;5.87;5.37;;;;;;;;;;4942956;29;20203;-96
2021/10/15 12:45:58;;;;;;;3.50;3.20;;;;;;;;;;4940425;29;20214;-96
2021/10/15 12:48:30;;;;;;;3.80;3.50;;;;;;;;;;4937347;29;20207;-96
2021/10/15 12:51:14;;;;;;;4.20;3.90;;;;;;;;;;4940799;29;20234;-95
2021/10/15 12:53:56;;;;;;;4.07;3.40;;;;;;;;;;4950806;29;20206;-95
2021/10/15 12:57:21;;;;;;;6.40;4.50;;;;;;;;;;4949635;29;20282;-96
2021/10/15 13:00:24;;;;;;;5.03;4.53;;;;;;;;;;4950419;29;20202;-96
2021/10/15 13:05:56;;;;;;;6.30;5.80;;;;;;;;;;4954187;29;20241;-96
2021/10/15 13:08:45;;;;;;;5.90;5.30;;;;;;;;;;4952505;28;20198;-96
2021/10/15 13:11:22;;;;;;;6.93;6.33;;;;;;;;;;5174640;23;20215;-96
2021/10/15 13:13:55;;;;;;;4.10;3.80;;;;;;;;;;5031792;28;20226;-96
2021/10/15 13:16:26;;;;;;;4.90;4.50;;;;;;;;;;5028268;28;20223;-96
2021/10/15 13:19:03;;;;;;;4.60;4.20;;;;;;;;;;5023128;28;20297;-96
2021/10/15 13:21:31;;;;;;;5.60;5.10;;;;;;;;;;5048533;23;20247;-96
2021/10/15 13:23:58;;;;;;;8.27;7.57;;;;;;;;;;4988246;28;20292;-96
2021/10/15 13:26:31;;;;;;;5.67;5.17;;;;;;;;;;4984837;28;20191;-96
2021/10/15 13:29:00;;;;;;;6.33;4.53;;;;;;;;;;4985903;28;20193;-95
2021/10/15 13:31:32;;;;;;;5.93;4.70;;;;;;;;;;4986956;28;20205;-96
2021/10/15 13:34:01;;;;;;;5.20;4.70;;;;;;;;;;4980440;28;20290;-96
2021/10/15 13:36:31;;;;;;;5.30;4.90;;;;;;;;;;4982416;28;20230;-96
2021/10/15 13:38:58;;;;;;;4.20;3.90;;;;;;;;;;4982250;28;20205;-96
2021/10/15 13:41:42;;;;;;;5.50;4.70;;;;;;;;;;4977588;28;20216;-95
2021/10/15 13:44:27;;;;;;;5.63;5.13;;;;;;;;;;4977045;28;20662;-96
2021/10/15 13:47:00;;;;;;;5.07;4.57;;;;;;;;;;4980674;28;20251;-94
2021/10/15 13:49:46;;;;;;;4.97;4.50;;;;;;;;;;4978028;28;20205;-95
2021/10/15 13:52:14;;;;;;;4.27;3.83;;;;;;;;;;4978066;28;20209;-94
2021/10/15 13:54:42;;;;;;;4.77;4.37;;;;;;;;;;4979588;28;20224;-95
2021/10/15 13:57:12;;;;;;;4.43;4.13;;;;;;;;;;4977061;28;20232;-96
2021/10/15 13:59:44;;;;;;;4.70;4.30;;;;;;;;;;4977070;28;20201;-96
2021/10/15 14:02:12;;;;;;;4.40;4.10;;;;;;;;;;4975722;28;20196;-96
2021/10/15 14:04:41;;;;;;;4.40;4.00;;;;;;;;;;4975360;28;20201;-96
2021/10/15 14:07:09;;;;;;;3.73;3.20;;;;;;;;;;4975074;28;20197;-95
2021/10/15 14:09:41;;;;;;;4.77;4.37;;;;;;;;;;4974911;28;20207;-96
2021/10/15 14:12:11;;;;;;;4.90;4.50;;;;;;;;;;4977673;28;20207;-96
2021/10/15 14:14:39;;;;;;;4.73;4.13;;;;;;;;;;4976072;28;20288;-95
2021/10/15 14:17:07;;;;;;;5.20;4.80;;;;;;;;;;4980933;28;20228;-96
2021/10/15 14:19:35;;;;;;;4.90;4.60;;;;;;;;;;4979322;28;20201;-95
2021/10/15 14:22:04;;;;;;;5.33;4.57;;;;;;;;;;4981530;28;20236;-95
2021/10/15 14:24:35;;;;;;;5.40;5.00;;;;;;;;;;4980754;28;20205;-95
2021/10/15 14:27:05;;;;;;;6.57;5.73;;;;;;;;;;4978732;28;20684;-96
2021/10/15 14:29:37;;;;;;;5.97;5.50;;;;;;;;;;4981304;28;20731;-95
2021/10/15 14:32:09;;;;;;;6.10;5.60;;;;;;;;;;4982693;28;20288;-96
2021/10/15 14:34:36;;;;;;;6.03;5.33;;;;;;;;;;4981753;28;20222;-95
2021/10/15 14:37:05;;;;;;;5.50;5.10;;;;;;;;;;4980242;28;20221;-96
2021/10/15 14:39:33;;;;;;;5.23;4.70;;;;;;;;;;4981624;28;20230;-96
2021/10/15 14:42:00;;;;;;;5.10;4.60;;;;;;;;;;4978805;28;20284;-96
2021/10/15 14:44:30;;;;;;;3.97;3.67;;;;;;;;;;4980289;28;20263;-96
2021/10/15 14:46:59;;;;;;;4.73;4.37;;;;;;;;;;4978481;28;20682;-96
2021/10/15 14:49:27;;;;;;;5.33;4.87;;;;;;;;;;4978864;28;20667;-96
2021/10/15 14:51:54;;;;;;;4.33;3.97;;;;;;;;;;4981391;28;20748;-96
2021/10/15 14:54:22;;;;;;;5.47;5.00;;;;;;;;;;4978556;28;20228;-96
2021/10/15 14:56:49;;;;;;;4.73;4.30;;;;;;;;;;4979698;28;20229;-95
2021/10/15 14:59:16;;;;;;;4.10;3.77;;;;;;;;;;4980984;28;20201;-95
2021/10/15 15:01:44;;;;;;;4.30;3.90;;;;;;;;;;4981128;28;20259;-94
2021/10/15 15:04:18;;;;;;;4.70;4.40;;;;;;;;;;4980708;28;20235;-96
2021/10/15 15:06:46;;;;;;;4.20;3.90;;;;;;;;;;4980335;28;20558;-95
2021/10/15 15:09:16;;;;;;;5.90;5.40;;;;;;;;;;4980975;28;20255;-94
2021/10/15 15:11:43;;;;;;;5.20;4.80;;;;;;;;;;4980880;28;20224;-93
2021/10/15 15:14:11;;;;;;;4.57;4.27;;;;;;;;;;4981538;28;20300;-96
2021/10/15 15:16:46;;;;;;;4.73;4.33;;;;;;;;;;4982752;28;20208;-96
2021/10/15 15:19:15;;;;;;;4.83;4.43;;;;;;;;;;4980394;28;20212;-90
2021/10/15 15:21:43;;;;;;;4.77;4.33;;;;;;;;;;4977503;28;20232;-93
2021/10/15 15:24:11;;;;;;;7.07;6.47;;;;;;;;;;4977306;28;20283;-94
2021/10/15 15:26:38;;;;;;;6.30;5.80;;;;;;;;;;4976669;28;20205;-95
2021/10/15 15:29:06;;;;;;;5.33;4.93;;;;;;;;;;4979523;28;20327;-94
2021/10/15 15:31:33;;;;;;;7.03;6.53;;;;;;;;;;4982909;28;20185;-96
2021/10/15 15:34:00;;;;;;;6.10;5.70;;;;;;;;;;4979070;28;20240;-96
2021/10/15 15:36:29;;;;;;;9.07;8.30;;;;;;;;;;4983241;28;20218;-96
2021/10/15 15:38:57;;;;;;;6.57;6.07;;;;;;;;;;4981707;28;20631;-96